createdAt,value
2018-04-02T00:01:40.640Z,20.43
2018-04-02T00:04:11.111Z,20.40
2018-04-02T00:06:41.705Z,19.03
2018-04-02T00:09:12.181Z,18.93
2018-04-02T00:11:43.655Z,17.15
2018-04-02T00:14:14.889Z,16.40
2018-04-02T00:16:46.106Z,16.20
2018-04-02T00:19:16.548Z,16.73
2018-04-02T00:21:47.030Z,15.02
2018-04-02T00:24:17.452Z,16.83
2018-04-02T00:26:47.890Z,17.87
2018-04-02T00:29:18.356Z,16.87
2018-04-02T00:31:48.807Z,17.27
2018-04-02T00:34:19.347Z,16.90
2018-04-02T00:36:49.806Z,16.70
2018-04-02T00:39:20.259Z,16.07
2018-04-02T00:41:50.818Z,18.03
2018-04-02T00:44:22.990Z,17.27
2018-04-02T00:46:53.896Z,17.33
2018-04-02T00:49:24.387Z,17.20
2018-04-02T00:51:54.855Z,16.40
2018-04-02T00:54:26.018Z,18.08
2018-04-02T00:56:57.273Z,17.20
2018-04-02T00:59:27.733Z,19.30
2018-04-02T01:01:58.186Z,17.47
2018-04-02T01:04:28.656Z,16.93
2018-04-02T01:06:59.491Z,19.87
2018-04-02T01:09:30.760Z,18.50
2018-04-02T01:12:02.620Z,17.53
2018-04-02T01:14:34.077Z,16.73
2018-04-02T01:17:04.551Z,17.13
2018-04-02T01:19:36.202Z,16.47
2018-04-02T01:22:07.406Z,15.60
2018-04-02T01:24:37.862Z,16.00
2018-04-02T01:27:08.309Z,16.50
2018-04-02T01:29:39.530Z,15.20
2018-04-02T01:32:09.970Z,16.37
2018-04-02T01:34:40.794Z,15.60
2018-04-02T01:37:11.263Z,15.53
2018-04-02T01:39:41.762Z,14.03
2018-04-02T01:42:12.238Z,15.20
2018-04-02T01:44:42.674Z,16.95
2018-04-02T01:47:13.167Z,17.27
2018-04-02T01:49:44.423Z,18.03
2018-04-02T01:52:14.940Z,16.60
2018-04-02T01:54:46.183Z,15.10
2018-04-02T01:57:17.438Z,17.00
2018-04-02T01:59:48.297Z,16.47
2018-04-02T02:02:19.724Z,17.07
2018-04-02T02:04:50.168Z,17.03
2018-04-02T02:07:20.646Z,17.23
2018-04-02T02:09:51.123Z,17.77
2018-04-02T02:12:21.595Z,16.67
2018-04-02T02:14:52.107Z,16.90
2018-04-02T02:17:22.559Z,16.40
2018-04-02T02:19:53.065Z,18.73
2018-04-02T02:22:23.513Z,17.70
2018-04-02T02:24:54.070Z,16.43
2018-04-02T02:27:25.280Z,16.27
2018-04-02T02:29:55.745Z,17.03
2018-04-02T02:32:26.660Z,16.47
2018-04-02T02:34:58.171Z,17.23
2018-04-02T02:37:29.284Z,17.80
2018-04-02T02:39:59.745Z,16.97
2018-04-02T02:42:30.307Z,17.93
2018-04-02T02:45:00.914Z,15.50
2018-04-02T02:47:31.571Z,18.20
2018-04-02T02:50:02.031Z,17.70
2018-04-02T02:52:32.542Z,19.97
2018-04-02T02:55:04.694Z,20.40
2018-04-02T02:57:35.152Z,18.30
2018-04-02T03:00:05.686Z,17.70
2018-04-02T03:02:36.174Z,18.93
2018-04-02T03:05:06.691Z,19.20
2018-04-02T03:07:37.160Z,18.45
2018-04-02T03:10:07.634Z,20.40
2018-04-02T03:12:38.074Z,21.00
2018-04-02T03:15:08.548Z,18.67
2018-04-02T03:17:39.014Z,17.80
2018-04-02T03:20:09.462Z,18.90
2018-04-02T03:22:39.937Z,19.33
2018-04-02T03:25:10.434Z,18.93
2018-04-02T03:27:41.619Z,19.75
2018-04-02T03:30:12.091Z,19.50
2018-04-02T03:32:42.854Z,19.73
2018-04-02T03:35:14.426Z,18.03
2018-04-02T03:37:45.701Z,19.77
2018-04-02T03:40:16.244Z,20.37
2018-04-02T03:42:46.711Z,20.80
2018-04-02T03:45:18.848Z,21.07
2018-04-02T03:47:49.310Z,23.87
2018-04-02T03:50:19.854Z,19.97
2018-04-02T03:52:50.307Z,20.50
2018-04-02T03:55:20.793Z,21.47
2018-04-02T03:57:51.251Z,20.23
2018-04-02T04:00:21.706Z,20.93
2018-04-02T04:02:52.163Z,21.13
2018-04-02T04:05:23.385Z,21.90
2018-04-02T04:07:54.455Z,20.23
2018-04-02T04:10:25.730Z,21.10
2018-04-02T04:12:56.162Z,19.87
2018-04-02T04:15:26.656Z,20.97
2018-04-02T04:17:57.914Z,19.80
2018-04-02T04:20:29.563Z,21.67
2018-04-02T04:23:00.035Z,21.37
2018-04-02T04:25:31.450Z,21.97
2018-04-02T04:28:01.942Z,20.80
2018-04-02T04:30:33.198Z,18.40
2018-04-02T04:33:04.426Z,17.03
2018-04-02T04:35:34.931Z,17.20
2018-04-02T04:38:05.382Z,16.15
2018-04-02T04:40:35.856Z,17.67
2018-04-02T04:43:06.344Z,15.97
2018-04-02T04:45:37.614Z,14.45
2018-04-02T04:48:08.082Z,16.17
2018-04-02T04:50:38.807Z,16.52
2018-04-02T04:53:09.410Z,16.63
2018-04-02T04:55:40.020Z,16.23
2018-04-02T04:58:11.277Z,17.00
2018-04-02T05:00:42.531Z,19.70
2018-04-02T05:03:12.995Z,26.17
2018-04-02T05:05:43.475Z,26.90
2018-04-02T05:08:13.942Z,28.30
2018-04-02T05:10:45.354Z,26.37
2018-04-02T05:13:16.753Z,25.87
2018-04-02T05:15:47.202Z,27.27
2018-04-02T05:18:17.655Z,27.17
2018-04-02T05:20:48.883Z,24.70
2018-04-02T05:23:20.135Z,23.40
2018-04-02T05:25:51.403Z,20.07
2018-04-02T05:28:21.983Z,18.33
2018-04-02T05:30:52.436Z,17.87
2018-04-02T05:33:23.672Z,17.73
2018-04-02T05:35:54.440Z,15.02
2018-04-02T05:38:25.191Z,15.90
2018-04-02T05:40:55.709Z,14.68
2018-04-02T05:43:26.203Z,15.63
2018-04-02T05:45:58.423Z,14.30
2018-04-02T05:48:29.759Z,15.87
2018-04-02T05:51:00.309Z,16.07
2018-04-02T05:53:30.758Z,16.77
2018-04-02T05:56:01.570Z,16.23
2018-04-02T05:58:32.015Z,15.50
2018-04-02T06:01:02.473Z,15.53
2018-04-02T06:03:33.341Z,17.27
2018-04-02T06:06:03.780Z,16.43
2018-04-02T06:08:34.272Z,16.40
2018-04-02T06:11:05.491Z,15.97
2018-04-02T06:13:35.950Z,15.77
2018-04-02T06:16:07.162Z,15.80
2018-04-02T06:18:38.436Z,16.73
2018-04-02T06:21:09.690Z,15.77
2018-04-02T06:23:41.110Z,16.70
2018-04-02T06:26:12.374Z,17.67
2018-04-02T06:28:43.656Z,16.67
2018-04-02T06:31:14.126Z,14.70
2018-04-02T06:33:44.590Z,15.52
2018-04-02T06:36:15.410Z,16.70
2018-04-02T06:38:46.774Z,16.37
2018-04-02T06:41:17.226Z,15.10
2018-04-02T06:43:47.684Z,15.13
2018-04-02T06:46:18.184Z,14.40
2018-04-02T06:48:48.659Z,14.20
2018-04-02T06:51:19.869Z,14.90
2018-04-02T06:53:50.354Z,14.48
2018-04-02T06:56:20.822Z,13.00
2018-04-02T06:58:51.278Z,14.38
2018-04-02T07:01:22.574Z,14.23
2018-04-02T07:06:28.802Z,14.20
2018-04-02T07:08:59.258Z,14.73
2018-04-02T07:11:29.761Z,13.70
2018-04-02T07:14:00.235Z,16.33
2018-04-02T07:16:30.683Z,13.93
2018-04-02T07:19:01.142Z,14.80
2018-04-02T07:21:31.599Z,13.80
2018-04-02T07:24:02.080Z,14.20
2018-04-02T07:26:32.544Z,15.40
2018-04-02T07:29:03.790Z,15.73
2018-04-02T07:31:35.233Z,14.90
2018-04-02T07:34:06.490Z,14.87
2018-04-02T07:36:37.506Z,15.30
2018-04-02T07:39:09.826Z,15.53
2018-04-02T07:41:40.306Z,16.35
2018-04-02T07:44:10.758Z,16.13
2018-04-02T07:46:41.978Z,17.77
2018-04-02T07:49:12.677Z,16.57
2018-04-02T07:51:43.195Z,16.90
2018-04-02T07:54:13.749Z,17.40
2018-04-02T07:56:44.339Z,16.62
2018-04-02T07:59:14.826Z,17.00
2018-04-02T08:01:45.341Z,18.67
2018-04-02T08:04:16.024Z,18.57
2018-04-02T08:06:46.582Z,17.27
2018-04-02T08:09:17.105Z,17.55
2018-04-02T08:11:47.767Z,18.57
2018-04-02T08:14:18.843Z,18.10
2018-04-02T08:16:51.042Z,17.80
2018-04-02T08:19:21.587Z,18.70
2018-04-02T08:21:52.050Z,18.20
2018-04-02T08:24:23.642Z,18.63
2018-04-02T08:26:54.356Z,16.60
2018-04-02T08:29:25.148Z,15.97
2018-04-02T08:31:55.676Z,17.17
2018-04-02T08:34:26.193Z,17.87
2018-04-02T08:36:56.787Z,17.10
2018-04-02T08:39:28.453Z,16.77
2018-04-02T08:41:59.029Z,17.10
2018-04-02T08:44:29.499Z,16.03
2018-04-02T08:47:00.105Z,15.87
2018-04-02T08:49:32.027Z,17.40
2018-04-02T08:52:02.588Z,16.40
2018-04-02T08:54:34.803Z,17.10
2018-04-02T08:57:05.508Z,18.70
2018-04-02T08:59:36.499Z,17.90
2018-04-02T09:02:06.991Z,16.97
2018-04-02T09:04:37.528Z,19.17
2018-04-02T09:09:42.905Z,17.60
2018-04-02T09:12:13.486Z,16.87
2018-04-02T09:14:44.857Z,17.13
2018-04-02T09:17:16.346Z,16.57
2018-04-02T09:19:46.907Z,17.60
2018-04-02T09:22:17.506Z,15.67
2018-04-02T09:24:48.537Z,15.63
2018-04-02T09:27:19.570Z,17.30
2018-04-02T09:29:50.074Z,16.50
2018-04-02T09:32:20.893Z,18.00
2018-04-02T09:34:52.462Z,16.85
2018-04-02T09:37:23.788Z,14.93
2018-04-02T09:39:54.264Z,15.53
2018-04-02T09:42:24.803Z,13.30
2018-04-02T09:44:55.304Z,14.70
2018-04-02T09:47:25.798Z,15.20
2018-04-02T09:49:56.490Z,14.43
2018-04-02T09:52:27.182Z,14.30
2018-04-02T09:54:59.426Z,15.50
2018-04-02T09:57:29.997Z,14.40
2018-04-02T10:00:00.476Z,14.87
2018-04-02T10:02:35.902Z,14.77
2018-04-02T10:05:08.370Z,13.77
2018-04-02T10:07:40.648Z,13.70
2018-04-02T10:10:11.229Z,14.53
2018-04-02T10:12:42.583Z,13.47
2018-04-02T10:15:13.159Z,12.70
2018-04-02T10:17:43.992Z,14.87
2018-04-02T10:20:14.624Z,13.30
2018-04-02T10:22:45.162Z,14.27
2018-04-02T10:25:15.725Z,12.90
2018-04-02T10:27:46.955Z,12.90
2018-04-02T10:30:17.755Z,13.50
2018-04-02T10:32:48.488Z,12.40
2018-04-02T10:35:18.974Z,12.73
2018-04-02T10:37:50.181Z,13.07
2018-04-02T10:40:21.869Z,11.77
2018-04-02T10:42:54.023Z,11.37
2018-04-02T10:45:24.791Z,11.67
2018-04-02T10:47:55.342Z,13.00
2018-04-02T10:50:25.807Z,12.27
2018-04-02T10:52:56.309Z,13.30
2018-04-02T10:55:26.766Z,13.30
2018-04-02T10:57:57.227Z,14.00
2018-04-02T11:00:27.715Z,15.40
2018-04-02T11:02:58.211Z,14.63
2018-04-02T11:05:29.602Z,14.70
2018-04-02T11:08:00.083Z,14.95
2018-04-02T11:10:30.554Z,13.70
2018-04-02T11:13:00.986Z,14.98
2018-04-02T11:15:32.442Z,15.00
2018-04-02T11:18:03.673Z,13.77
2018-04-02T11:20:34.686Z,14.00
2018-04-02T11:23:05.147Z,14.50
2018-04-02T11:25:35.614Z,15.43
2018-04-02T11:28:06.095Z,15.70
2018-04-02T11:30:36.553Z,17.37
2018-04-02T11:33:07.976Z,16.50
2018-04-02T11:35:39.136Z,15.30
2018-04-02T11:38:10.443Z,15.00
2018-04-02T11:40:41.050Z,15.00
2018-04-02T11:43:11.523Z,15.63
2018-04-02T11:45:42.002Z,16.07
2018-04-02T11:48:12.755Z,14.47
2018-04-02T11:50:43.316Z,16.27
2018-04-02T11:53:13.791Z,14.23
2018-04-02T11:55:44.267Z,15.55
2018-04-02T11:58:14.734Z,15.30
2018-04-02T12:00:45.244Z,14.37
2018-04-02T12:03:16.481Z,15.40
2018-04-02T12:05:47.714Z,15.20
2018-04-02T12:08:18.165Z,15.03
2018-04-02T12:10:49.452Z,15.75
2018-04-02T12:13:20.003Z,15.17
2018-04-02T12:15:51.406Z,14.07
2018-04-02T12:18:21.879Z,14.80
2018-04-02T12:20:52.398Z,14.77
2018-04-02T12:23:22.890Z,15.10
2018-04-02T12:25:53.449Z,15.03
2018-04-02T12:28:23.928Z,13.73
2018-04-02T12:30:55.142Z,15.50
2018-04-02T12:33:25.609Z,15.80
2018-04-02T12:35:56.649Z,15.18
2018-04-02T12:38:29.042Z,15.47
2018-04-02T12:41:00.122Z,14.63
2018-04-02T12:43:30.611Z,14.53
2018-04-02T12:46:01.811Z,16.70
2018-04-02T12:48:32.356Z,16.87
2018-04-02T12:51:04.614Z,14.50
2018-04-02T12:53:35.895Z,16.33
2018-04-02T12:56:06.420Z,15.30
2018-04-02T12:58:37.483Z,16.10
2018-04-02T13:01:07.951Z,15.47
2018-04-02T13:03:38.420Z,16.13
2018-04-02T13:06:09.090Z,15.70
2018-04-02T13:08:39.572Z,15.47
2018-04-02T13:11:10.068Z,14.87
2018-04-02T13:13:41.766Z,14.73
2018-04-02T13:16:12.246Z,14.63
2018-04-02T13:18:42.830Z,15.30
2018-04-02T13:21:13.410Z,15.03
2018-04-02T13:23:43.875Z,15.33
2018-04-02T13:26:14.347Z,17.20
2018-04-02T13:28:44.796Z,14.40
2018-04-02T13:31:15.247Z,15.10
2018-04-02T13:33:46.467Z,15.23
2018-04-02T13:36:16.934Z,15.10
2018-04-02T13:38:47.386Z,15.98
2018-04-02T13:41:18.764Z,17.63
2018-04-02T13:43:49.533Z,15.73
2018-04-02T13:46:20.024Z,17.50
2018-04-02T13:48:50.509Z,16.85
2018-04-02T13:51:20.971Z,17.93
2018-04-02T13:53:51.428Z,17.27
2018-04-02T13:56:23.686Z,16.23
2018-04-02T13:58:54.799Z,16.73
2018-04-02T14:01:25.268Z,16.57
2018-04-02T14:03:56.478Z,16.90
2018-04-02T14:06:26.959Z,17.73
2018-04-02T14:08:57.429Z,17.43
2018-04-02T14:11:27.914Z,19.17
2018-04-02T14:13:58.406Z,18.83
2018-04-02T14:16:28.845Z,18.63
2018-04-02T14:19:00.124Z,19.20
2018-04-02T14:21:30.590Z,18.97
2018-04-02T14:24:01.030Z,20.07
2018-04-02T14:26:31.797Z,18.87
2018-04-02T14:29:03.258Z,19.52
2018-04-02T14:31:33.785Z,19.00
2018-04-02T14:34:04.319Z,18.50
2018-04-02T14:36:34.794Z,19.15
2018-04-02T14:39:06.077Z,19.40
2018-04-02T14:41:37.307Z,20.00
2018-04-02T14:44:08.534Z,19.60
2018-04-02T14:46:38.985Z,19.80
2018-04-02T14:49:10.191Z,18.70
2018-04-02T14:51:40.642Z,19.40
2018-04-02T14:54:11.104Z,18.60
2018-04-02T14:56:41.584Z,20.37
2018-04-02T14:59:12.064Z,20.67
2018-04-02T15:01:43.448Z,20.47
2018-04-02T15:04:13.926Z,20.93
2018-04-02T15:06:46.087Z,21.30
2018-04-02T15:09:17.319Z,21.80
2018-04-02T15:11:48.583Z,22.03
2018-04-02T15:14:19.806Z,21.07
2018-04-02T15:16:50.262Z,23.98
2018-04-02T15:19:20.794Z,23.53
2018-04-02T15:21:51.251Z,22.27
2018-04-02T15:24:21.720Z,21.83
2018-04-02T15:26:52.182Z,22.70
2018-04-02T15:29:22.708Z,21.60
2018-04-02T15:31:53.200Z,21.00
2018-04-02T15:34:23.662Z,23.57
2018-04-02T15:36:54.185Z,20.80
2018-04-02T15:39:25.496Z,22.70
2018-04-02T15:41:57.060Z,23.00
2018-04-02T15:44:27.536Z,22.50
2018-04-02T15:46:58.047Z,22.73
2018-04-02T15:49:28.551Z,24.47
2018-04-02T15:52:00.733Z,22.60
2018-04-02T15:54:31.996Z,22.83
2018-04-02T15:57:02.456Z,22.75
2018-04-02T15:59:32.946Z,24.17
2018-04-02T16:02:03.410Z,23.83
2018-04-02T16:04:34.686Z,21.53
2018-04-02T16:07:05.158Z,22.07
2018-04-02T16:09:35.606Z,22.90
2018-04-02T16:12:06.088Z,22.10
2018-04-02T16:14:37.319Z,23.17
2018-04-02T16:17:07.828Z,21.97
2018-04-02T16:19:38.359Z,22.43
2018-04-02T16:22:08.838Z,22.23
2018-04-02T16:24:39.316Z,23.10
2018-04-02T16:27:10.657Z,19.65
2018-04-02T16:29:41.130Z,21.00
2018-04-02T16:32:11.583Z,21.40
2018-04-02T16:34:42.042Z,21.37
2018-04-02T16:37:12.486Z,20.70
2018-04-02T19:57:36.293Z,8.50
2018-04-02T20:00:06.490Z,8.07
2018-04-02T20:02:37.055Z,8.30
2018-04-02T20:05:06.900Z,9.07
2018-04-02T20:07:36.720Z,8.93
2018-04-02T20:10:06.693Z,9.82
2018-04-02T20:12:36.502Z,8.90
2018-04-02T20:15:06.338Z,7.80
2018-04-02T20:17:36.128Z,9.13
2018-04-02T20:20:06.217Z,9.05
2018-04-02T20:22:36.856Z,8.67
2018-04-02T20:25:07.420Z,8.20
2018-04-02T20:27:37.233Z,9.30
2018-04-02T20:30:07.025Z,9.13
2018-04-02T20:32:36.788Z,7.70
2018-04-02T20:35:06.558Z,9.87
2018-04-02T20:37:36.343Z,8.30
2018-04-02T20:42:40.865Z,8.30
2018-04-02T20:45:10.612Z,8.40
2018-04-02T20:47:40.495Z,8.87
2018-04-02T20:50:11.070Z,8.80
2018-04-02T20:52:40.895Z,8.50
2018-04-02T20:55:11.369Z,9.10
2018-04-02T20:57:41.941Z,9.10
2018-04-02T21:00:11.753Z,9.40
2018-04-02T21:02:41.575Z,9.07
2018-04-02T21:05:11.691Z,9.30
2018-04-02T21:07:41.814Z,10.13
2018-04-02T21:10:11.605Z,10.90
2018-04-02T21:12:41.389Z,10.80
2018-04-02T21:15:11.938Z,10.67
2018-04-02T21:17:42.371Z,9.93
2018-04-02T21:20:12.162Z,9.90
2018-04-02T21:22:42.796Z,10.00
2018-04-02T21:25:12.571Z,9.57
2018-04-02T21:27:42.422Z,10.20
2018-04-02T21:30:12.242Z,10.98
2018-04-02T21:32:42.036Z,10.30
2018-04-02T21:35:12.593Z,13.25
2018-04-02T21:37:42.529Z,12.07
2018-04-02T21:40:12.312Z,12.97
2018-04-02T21:42:42.093Z,13.50
2018-04-02T21:45:12.652Z,13.82
2018-04-02T21:47:42.492Z,13.00
2018-04-02T21:50:12.320Z,12.57
2018-04-02T21:52:42.174Z,12.10
2018-04-02T21:55:12.723Z,13.20
2018-04-02T21:57:42.706Z,13.00
2018-04-02T22:00:13.626Z,13.33
2018-04-02T22:02:43.406Z,12.40
2018-04-02T22:05:13.566Z,13.37
2018-04-02T22:07:43.482Z,13.37
2018-04-02T22:10:13.333Z,13.10
2018-04-02T22:12:43.914Z,12.73
2018-04-02T22:15:13.704Z,11.90
2018-04-02T22:17:46.026Z,13.20
2018-04-02T22:20:16.599Z,13.53
2018-04-02T22:22:46.509Z,14.33
2018-04-02T22:25:16.258Z,13.70
2018-04-02T22:27:46.652Z,13.80
2018-04-02T22:30:16.433Z,13.07
2018-04-02T22:32:46.240Z,13.00
2018-04-02T22:35:16.035Z,11.83
2018-04-02T22:37:46.593Z,12.00
2018-04-02T22:40:16.542Z,12.20
2018-04-02T22:42:48.316Z,11.33
2018-04-02T22:45:18.130Z,11.15
2018-04-02T22:47:47.901Z,11.50
2018-04-02T22:50:17.729Z,11.13
2018-04-02T22:52:47.575Z,10.10
2018-04-02T22:55:18.988Z,11.07
2018-04-02T22:57:48.854Z,11.70
2018-04-02T23:00:20.785Z,12.20
2018-04-02T23:02:50.738Z,12.10
2018-04-02T23:05:20.545Z,12.40
2018-04-02T23:07:52.014Z,11.77
2018-04-02T23:10:22.665Z,11.77
2018-04-02T23:12:52.459Z,12.10
2018-04-02T23:15:22.246Z,12.00
2018-04-02T23:17:52.079Z,12.63
2018-04-02T23:20:21.964Z,12.47
2018-04-02T23:22:55.064Z,13.17
2018-04-02T23:25:25.635Z,13.00
2018-04-02T23:27:56.217Z,13.70
2018-04-02T23:30:26.790Z,13.37
2018-04-02T23:32:56.636Z,11.60
2018-04-02T23:35:26.413Z,12.40
2018-04-02T23:37:56.159Z,11.53
2018-04-02T23:40:25.989Z,11.90
2018-04-02T23:42:56.600Z,11.50
2018-04-02T23:45:26.418Z,11.50
2018-04-02T23:47:56.234Z,11.80
2018-04-02T23:50:25.994Z,14.40
2018-04-02T23:52:55.883Z,16.70
2018-04-02T23:55:26.429Z,17.00
2018-04-02T23:57:56.542Z,13.37
